sensor_id;sensor_type;location;lat;lon;timestamp;P1;durP1;ratioP1;P2;durP2;ratioP2
80199;SDS011;69520;44.900;-0.764;2023-06-04T00:02:18;9.03;;;4.43;;
80199;SDS011;69520;44.900;-0.764;2023-06-04T00:04:44;9.80;;;4.10;;
80199;SDS011;69520;44.900;-0.764;2023-06-04T00:07:10;9.20;;;3.78;;
80199;SDS011;69520;44.900;-0.764;2023-06-04T00:09:36;9.38;;;3.65;;
80199;SDS011;69520;44.900;-0.764;2023-06-04T00:12:02;8.38;;;3.08;;
80199;SDS011;69520;44.900;-0.764;2023-06-04T00:14:28;6.27;;;2.37;;
80199;SDS011;69520;44.900;-0.764;2023-06-04T00:16:54;7.90;;;2.63;;
80199;SDS011;69520;44.900;-0.764;2023-06-04T00:19:20;7.07;;;2.20;;
80199;SDS011;69520;44.900;-0.764;2023-06-04T00:21:46;9.57;;;3.40;;
80199;SDS011;69520;44.900;-0.764;2023-06-04T00:24:12;8.02;;;3.60;;
80199;SDS011;69520;44.900;-0.764;2023-06-04T00:26:39;8.90;;;4.10;;
80199;SDS011;69520;44.900;-0.764;2023-06-04T00:29:05;8.80;;;4.20;;
80199;SDS011;69520;44.900;-0.764;2023-06-04T00:31:31;9.23;;;4.07;;
80199;SDS011;69520;44.900;-0.764;2023-06-04T00:33:57;9.73;;;3.97;;
80199;SDS011;69520;44.900;-0.764;2023-06-04T00:36:23;9.90;;;4.15;;
80199;SDS011;69520;44.900;-0.764;2023-06-04T00:38:49;9.50;;;4.23;;
80199;SDS011;69520;44.900;-0.764;2023-06-04T00:41:15;9.32;;;4.35;;
80199;SDS011;69520;44.900;-0.764;2023-06-04T00:43:41;8.98;;;4.75;;
80199;SDS011;69520;44.900;-0.764;2023-06-04T00:46:11;10.23;;;5.10;;
80199;SDS011;69520;44.900;-0.764;2023-06-04T00:48:43;10.07;;;4.80;;
80199;SDS011;69520;44.900;-0.764;2023-06-04T00:51:10;10.03;;;4.40;;
80199;SDS011;69520;44.900;-0.764;2023-06-04T00:53:37;8.48;;;4.55;;
80199;SDS011;69520;44.900;-0.764;2023-06-04T00:56:03;11.02;;;4.40;;
80199;SDS011;69520;44.900;-0.764;2023-06-04T00:58:30;9.45;;;4.80;;
80199;SDS011;69520;44.900;-0.764;2023-06-04T01:00:56;10.25;;;4.65;;
80199;SDS011;69520;44.900;-0.764;2023-06-04T01:03:23;10.37;;;5.10;;
80199;SDS011;69520;44.900;-0.764;2023-06-04T01:05:57;8.95;;;4.70;;
80199;SDS011;69520;44.900;-0.764;2023-06-04T01:08:26;9.50;;;4.90;;
80199;SDS011;69520;44.900;-0.764;2023-06-04T01:10:53;10.07;;;5.32;;
80199;SDS011;69520;44.900;-0.764;2023-06-04T01:13:20;9.98;;;5.30;;
80199;SDS011;69520;44.900;-0.764;2023-06-04T01:15:46;9.10;;;5.30;;
80199;SDS011;69520;44.900;-0.764;2023-06-04T01:18:13;10.80;;;5.60;;
80199;SDS011;69520;44.900;-0.764;2023-06-04T01:20:49;10.55;;;5.47;;
80199;SDS011;69520;44.900;-0.764;2023-06-04T01:25:45;10.90;;;5.85;;
80199;SDS011;69520;44.900;-0.764;2023-06-04T01:28:14;11.70;;;5.85;;
80199;SDS011;69520;44.900;-0.764;2023-06-04T01:30:43;11.30;;;5.97;;
80199;SDS011;69520;44.900;-0.764;2023-06-04T01:33:14;10.50;;;5.43;;
80199;SDS011;69520;44.900;-0.764;2023-06-04T01:35:41;10.13;;;4.88;;
80199;SDS011;69520;44.900;-0.764;2023-06-04T01:38:07;10.05;;;5.38;;
80199;SDS011;69520;44.900;-0.764;2023-06-04T01:40:33;9.75;;;5.78;;
80199;SDS011;69520;44.900;-0.764;2023-06-04T01:42:59;10.67;;;6.10;;
80199;SDS011;69520;44.900;-0.764;2023-06-04T01:45:26;12.02;;;5.88;;
80199;SDS011;69520;44.900;-0.764;2023-06-04T01:47:53;9.48;;;5.15;;
80199;SDS011;69520;44.900;-0.764;2023-06-04T01:50:19;11.20;;;5.65;;
80199;SDS011;69520;44.900;-0.764;2023-06-04T01:52:46;10.02;;;6.18;;
80199;SDS011;69520;44.900;-0.764;2023-06-04T01:55:12;10.90;;;5.33;;
80199;SDS011;69520;44.900;-0.764;2023-06-04T01:57:39;11.93;;;5.63;;
80199;SDS011;69520;44.900;-0.764;2023-06-04T02:00:05;11.20;;;5.55;;
80199;SDS011;69520;44.900;-0.764;2023-06-04T02:02:38;10.38;;;5.72;;
80199;SDS011;69520;44.900;-0.764;2023-06-04T02:05:08;10.30;;;5.88;;
80199;SDS011;69520;44.900;-0.764;2023-06-04T02:07:35;10.97;;;5.67;;
80199;SDS011;69520;44.900;-0.764;2023-06-04T02:10:03;9.70;;;5.78;;
80199;SDS011;69520;44.900;-0.764;2023-06-04T02:12:29;12.02;;;6.15;;
80199;SDS011;69520;44.900;-0.764;2023-06-04T02:14:55;11.65;;;6.03;;
80199;SDS011;69520;44.900;-0.764;2023-06-04T02:17:21;9.77;;;5.45;;
80199;SDS011;69520;44.900;-0.764;2023-06-04T02:19:47;10.53;;;5.67;;
80199;SDS011;69520;44.900;-0.764;2023-06-04T02:22:18;9.63;;;5.45;;
80199;SDS011;69520;44.900;-0.764;2023-06-04T02:24:44;10.88;;;5.68;;
80199;SDS011;69520;44.900;-0.764;2023-06-04T02:27:11;9.90;;;5.47;;
80199;SDS011;69520;44.900;-0.764;2023-06-04T02:29:40;10.57;;;5.60;;
80199;SDS011;69520;44.900;-0.764;2023-06-04T02:32:06;9.20;;;5.37;;
80199;SDS011;69520;44.900;-0.764;2023-06-04T02:34:32;13.67;;;6.27;;
80199;SDS011;69520;44.900;-0.764;2023-06-04T02:37:01;9.57;;;5.40;;
80199;SDS011;69520;44.900;-0.764;2023-06-04T02:39:28;9.18;;;5.55;;
80199;SDS011;69520;44.900;-0.764;2023-06-04T02:41:54;9.80;;;5.35;;
80199;SDS011;69520;44.900;-0.764;2023-06-04T02:44:20;10.25;;;5.38;;
80199;SDS011;69520;44.900;-0.764;2023-06-04T02:46:46;9.67;;;5.17;;
80199;SDS011;69520;44.900;-0.764;2023-06-04T02:49:12;9.05;;;5.38;;
80199;SDS011;69520;44.900;-0.764;2023-06-04T02:51:39;10.77;;;5.43;;
80199;SDS011;69520;44.900;-0.764;2023-06-04T02:54:05;9.38;;;4.97;;
80199;SDS011;69520;44.900;-0.764;2023-06-04T02:56:31;10.27;;;5.25;;
80199;SDS011;69520;44.900;-0.764;2023-06-04T02:58:57;10.23;;;5.60;;
80199;SDS011;69520;44.900;-0.764;2023-06-04T03:01:24;9.35;;;5.30;;
80199;SDS011;69520;44.900;-0.764;2023-06-04T03:03:50;10.32;;;5.50;;
80199;SDS011;69520;44.900;-0.764;2023-06-04T03:06:17;10.75;;;6.22;;
80199;SDS011;69520;44.900;-0.764;2023-06-04T03:08:45;9.75;;;5.72;;
80199;SDS011;69520;44.900;-0.764;2023-06-04T03:11:11;10.23;;;5.57;;
80199;SDS011;69520;44.900;-0.764;2023-06-04T03:13:37;14.05;;;6.13;;
80199;SDS011;69520;44.900;-0.764;2023-06-04T03:16:03;10.68;;;5.43;;
80199;SDS011;69520;44.900;-0.764;2023-06-04T03:18:38;9.95;;;5.60;;
80199;SDS011;69520;44.900;-0.764;2023-06-04T03:21:04;9.82;;;5.95;;
80199;SDS011;69520;44.900;-0.764;2023-06-04T03:23:30;9.67;;;5.77;;
80199;SDS011;69520;44.900;-0.764;2023-06-04T03:25:56;9.60;;;5.18;;
80199;SDS011;69520;44.900;-0.764;2023-06-04T03:28:22;9.85;;;5.25;;
80199;SDS011;69520;44.900;-0.764;2023-06-04T03:30:48;9.40;;;5.30;;
80199;SDS011;69520;44.900;-0.764;2023-06-04T03:33:14;9.45;;;5.60;;
80199;SDS011;69520;44.900;-0.764;2023-06-04T03:35:40;10.63;;;5.73;;
80199;SDS011;69520;44.900;-0.764;2023-06-04T03:38:07;11.48;;;5.30;;
80199;SDS011;69520;44.900;-0.764;2023-06-04T03:40:33;10.68;;;5.60;;
80199;SDS011;69520;44.900;-0.764;2023-06-04T03:42:59;13.20;;;5.75;;
80199;SDS011;69520;44.900;-0.764;2023-06-04T03:45:25;10.32;;;5.90;;
80199;SDS011;69520;44.900;-0.764;2023-06-04T03:47:51;10.90;;;6.60;;
80199;SDS011;69520;44.900;-0.764;2023-06-04T03:50:18;11.27;;;6.17;;
80199;SDS011;69520;44.900;-0.764;2023-06-04T03:52:44;10.98;;;5.88;;
80199;SDS011;69520;44.900;-0.764;2023-06-04T03:55:10;10.73;;;6.13;;
80199;SDS011;69520;44.900;-0.764;2023-06-04T03:57:36;10.48;;;5.82;;
80199;SDS011;69520;44.900;-0.764;2023-06-04T04:00:04;10.93;;;6.10;;
80199;SDS011;69520;44.900;-0.764;2023-06-04T04:02:30;13.73;;;6.53;;
80199;SDS011;69520;44.900;-0.764;2023-06-04T04:04:56;10.25;;;6.13;;
80199;SDS011;69520;44.900;-0.764;2023-06-04T04:07:23;12.43;;;6.80;;
80199;SDS011;69520;44.900;-0.764;2023-06-04T04:09:49;13.85;;;6.70;;
80199;SDS011;69520;44.900;-0.764;2023-06-04T04:12:15;10.27;;;6.50;;
80199;SDS011;69520;44.900;-0.764;2023-06-04T04:14:42;11.70;;;6.57;;
80199;SDS011;69520;44.900;-0.764;2023-06-04T04:17:08;12.95;;;6.50;;
80199;SDS011;69520;44.900;-0.764;2023-06-04T04:19:34;12.35;;;6.95;;
80199;SDS011;69520;44.900;-0.764;2023-06-04T04:22:00;11.50;;;6.35;;
80199;SDS011;69520;44.900;-0.764;2023-06-04T04:24:26;11.13;;;6.80;;
80199;SDS011;69520;44.900;-0.764;2023-06-04T04:26:53;11.03;;;6.27;;
80199;SDS011;69520;44.900;-0.764;2023-06-04T04:29:22;10.90;;;6.63;;
80199;SDS011;69520;44.900;-0.764;2023-06-04T04:31:50;12.65;;;7.05;;
80199;SDS011;69520;44.900;-0.764;2023-06-04T04:34:16;12.45;;;6.75;;
80199;SDS011;69520;44.900;-0.764;2023-06-04T04:36:45;10.82;;;7.05;;
80199;SDS011;69520;44.900;-0.764;2023-06-04T04:39:16;12.87;;;7.27;;
80199;SDS011;69520;44.900;-0.764;2023-06-04T04:41:42;12.13;;;7.13;;
80199;SDS011;69520;44.900;-0.764;2023-06-04T04:44:08;12.90;;;6.63;;
80199;SDS011;69520;44.900;-0.764;2023-06-04T04:46:34;11.63;;;7.20;;
80199;SDS011;69520;44.900;-0.764;2023-06-04T04:49:00;11.23;;;7.20;;
80199;SDS011;69520;44.900;-0.764;2023-06-04T04:51:26;13.52;;;8.07;;
80199;SDS011;69520;44.900;-0.764;2023-06-04T04:53:52;12.43;;;8.07;;
80199;SDS011;69520;44.900;-0.764;2023-06-04T04:56:19;13.23;;;8.13;;
80199;SDS011;69520;44.900;-0.764;2023-06-04T04:58:47;14.15;;;8.35;;
80199;SDS011;69520;44.900;-0.764;2023-06-04T05:01:13;13.40;;;8.13;;
80199;SDS011;69520;44.900;-0.764;2023-06-04T05:03:39;14.68;;;7.93;;
80199;SDS011;69520;44.900;-0.764;2023-06-04T05:06:05;14.70;;;8.23;;
80199;SDS011;69520;44.900;-0.764;2023-06-04T05:08:31;12.95;;;8.27;;
80199;SDS011;69520;44.900;-0.764;2023-06-04T05:10:57;13.77;;;7.75;;
80199;SDS011;69520;44.900;-0.764;2023-06-04T05:13:23;14.13;;;8.38;;
80199;SDS011;69520;44.900;-0.764;2023-06-04T05:15:49;14.20;;;8.43;;
80199;SDS011;69520;44.900;-0.764;2023-06-04T05:18:17;13.53;;;8.43;;
80199;SDS011;69520;44.900;-0.764;2023-06-04T05:20:45;14.90;;;8.98;;
80199;SDS011;69520;44.900;-0.764;2023-06-04T05:23:11;13.40;;;8.63;;
80199;SDS011;69520;44.900;-0.764;2023-06-04T05:25:37;15.68;;;9.10;;
80199;SDS011;69520;44.900;-0.764;2023-06-04T05:28:04;15.27;;;9.13;;
80199;SDS011;69520;44.900;-0.764;2023-06-04T05:30:31;14.67;;;8.87;;
80199;SDS011;69520;44.900;-0.764;2023-06-04T05:33:00;15.60;;;8.73;;
80199;SDS011;69520;44.900;-0.764;2023-06-04T05:35:26;16.17;;;9.63;;
80199;SDS011;69520;44.900;-0.764;2023-06-04T05:37:52;16.33;;;10.18;;
80199;SDS011;69520;44.900;-0.764;2023-06-04T05:40:18;14.43;;;9.63;;
80199;SDS011;69520;44.900;-0.764;2023-06-04T05:42:44;16.75;;;10.45;;
80199;SDS011;69520;44.900;-0.764;2023-06-04T05:45:12;16.20;;;10.00;;
80199;SDS011;69520;44.900;-0.764;2023-06-04T05:47:38;15.40;;;9.88;;
80199;SDS011;69520;44.900;-0.764;2023-06-04T05:50:04;16.30;;;10.45;;
80199;SDS011;69520;44.900;-0.764;2023-06-04T05:52:31;15.98;;;10.55;;
80199;SDS011;69520;44.900;-0.764;2023-06-04T05:54:58;15.95;;;9.93;;
80199;SDS011;69520;44.900;-0.764;2023-06-04T05:57:24;15.67;;;10.27;;
80199;SDS011;69520;44.900;-0.764;2023-06-04T05:59:50;16.80;;;10.13;;
80199;SDS011;69520;44.900;-0.764;2023-06-04T06:02:17;17.23;;;11.18;;
80199;SDS011;69520;44.900;-0.764;2023-06-04T06:04:43;15.00;;;9.52;;
80199;SDS011;69520;44.900;-0.764;2023-06-04T06:07:09;14.65;;;8.95;;
80199;SDS011;69520;44.900;-0.764;2023-06-04T06:09:35;15.67;;;9.70;;
80199;SDS011;69520;44.900;-0.764;2023-06-04T06:12:01;15.13;;;10.30;;
80199;SDS011;69520;44.900;-0.764;2023-06-04T06:14:27;15.18;;;10.60;;
80199;SDS011;69520;44.900;-0.764;2023-06-04T06:16:53;15.27;;;10.23;;
80199;SDS011;69520;44.900;-0.764;2023-06-04T06:19:19;15.57;;;9.48;;
80199;SDS011;69520;44.900;-0.764;2023-06-04T06:21:45;14.97;;;9.07;;
80199;SDS011;69520;44.900;-0.764;2023-06-04T06:24:12;14.60;;;9.65;;
80199;SDS011;69520;44.900;-0.764;2023-06-04T06:26:38;16.30;;;10.88;;
80199;SDS011;69520;44.900;-0.764;2023-06-04T06:29:04;14.50;;;9.77;;
80199;SDS011;69520;44.900;-0.764;2023-06-04T06:31:30;14.73;;;9.98;;
80199;SDS011;69520;44.900;-0.764;2023-06-04T06:33:56;16.30;;;10.50;;
80199;SDS011;69520;44.900;-0.764;2023-06-04T06:36:22;13.82;;;9.13;;
80199;SDS011;69520;44.900;-0.764;2023-06-04T06:38:48;12.45;;;8.32;;
80199;SDS011;69520;44.900;-0.764;2023-06-04T06:41:14;12.02;;;8.07;;
80199;SDS011;69520;44.900;-0.764;2023-06-04T06:43:40;12.23;;;8.02;;
80199;SDS011;69520;44.900;-0.764;2023-06-04T06:46:06;16.13;;;8.17;;
80199;SDS011;69520;44.900;-0.764;2023-06-04T06:48:32;12.32;;;8.10;;
80199;SDS011;69520;44.900;-0.764;2023-06-04T06:50:58;12.55;;;8.23;;
80199;SDS011;69520;44.900;-0.764;2023-06-04T06:53:24;11.35;;;7.47;;
80199;SDS011;69520;44.900;-0.764;2023-06-04T06:55:50;12.60;;;8.38;;
80199;SDS011;69520;44.900;-0.764;2023-06-04T06:58:16;11.70;;;7.07;;
80199;SDS011;69520;44.900;-0.764;2023-06-04T07:00:42;10.98;;;5.80;;
80199;SDS011;69520;44.900;-0.764;2023-06-04T07:03:08;8.77;;;5.63;;
80199;SDS011;69520;44.900;-0.764;2023-06-04T07:05:34;9.55;;;5.93;;
80199;SDS011;69520;44.900;-0.764;2023-06-04T07:08:00;9.50;;;5.78;;
80199;SDS011;69520;44.900;-0.764;2023-06-04T07:10:27;11.00;;;5.90;;
80199;SDS011;69520;44.900;-0.764;2023-06-04T07:12:53;8.35;;;5.07;;
80199;SDS011;69520;44.900;-0.764;2023-06-04T07:15:19;8.50;;;4.55;;
80199;SDS011;69520;44.900;-0.764;2023-06-04T07:17:45;8.55;;;4.55;;
80199;SDS011;69520;44.900;-0.764;2023-06-04T07:20:11;9.82;;;4.05;;
80199;SDS011;69520;44.900;-0.764;2023-06-04T07:22:37;7.73;;;3.80;;
80199;SDS011;69520;44.900;-0.764;2023-06-04T07:25:03;8.55;;;4.57;;
80199;SDS011;69520;44.900;-0.764;2023-06-04T07:27:30;9.80;;;5.43;;
80199;SDS011;69520;44.900;-0.764;2023-06-04T07:29:56;9.45;;;5.07;;
80199;SDS011;69520;44.900;-0.764;2023-06-04T07:32:22;8.55;;;4.90;;
80199;SDS011;69520;44.900;-0.764;2023-06-04T07:34:48;8.27;;;4.77;;
80199;SDS011;69520;44.900;-0.764;2023-06-04T07:37:14;9.02;;;4.97;;
80199;SDS011;69520;44.900;-0.764;2023-06-04T07:39:40;10.02;;;5.25;;
80199;SDS011;69520;44.900;-0.764;2023-06-04T07:42:06;9.38;;;5.30;;
80199;SDS011;69520;44.900;-0.764;2023-06-04T07:44:32;8.73;;;5.15;;
80199;SDS011;69520;44.900;-0.764;2023-06-04T07:46:58;9.97;;;6.00;;
80199;SDS011;69520;44.900;-0.764;2023-06-04T07:49:24;10.53;;;5.40;;
80199;SDS011;69520;44.900;-0.764;2023-06-04T07:51:51;10.45;;;5.72;;
80199;SDS011;69520;44.900;-0.764;2023-06-04T07:54:17;9.50;;;5.80;;
80199;SDS011;69520;44.900;-0.764;2023-06-04T07:56:43;10.60;;;5.53;;
80199;SDS011;69520;44.900;-0.764;2023-06-04T07:59:09;9.32;;;5.93;;
80199;SDS011;69520;44.900;-0.764;2023-06-04T08:01:35;9.87;;;5.63;;
80199;SDS011;69520;44.900;-0.764;2023-06-04T08:04:01;10.25;;;5.63;;
80199;SDS011;69520;44.900;-0.764;2023-06-04T08:06:27;10.43;;;5.93;;
80199;SDS011;69520;44.900;-0.764;2023-06-04T08:08:53;9.40;;;5.13;;
80199;SDS011;69520;44.900;-0.764;2023-06-04T08:11:19;8.90;;;5.72;;
80199;SDS011;69520;44.900;-0.764;2023-06-04T08:13:47;10.87;;;5.20;;
80199;SDS011;69520;44.900;-0.764;2023-06-04T08:16:13;10.35;;;5.00;;
80199;SDS011;69520;44.900;-0.764;2023-06-04T08:18:40;9.40;;;5.68;;
80199;SDS011;69520;44.900;-0.764;2023-06-04T08:21:08;9.13;;;5.45;;
80199;SDS011;69520;44.900;-0.764;2023-06-04T08:23:35;10.73;;;5.18;;
80199;SDS011;69520;44.900;-0.764;2023-06-04T08:26:01;8.80;;;5.27;;
80199;SDS011;69520;44.900;-0.764;2023-06-04T08:28:27;8.68;;;5.20;;
80199;SDS011;69520;44.900;-0.764;2023-06-04T08:30:53;9.82;;;5.82;;
80199;SDS011;69520;44.900;-0.764;2023-06-04T08:33:19;8.15;;;5.13;;
80199;SDS011;69520;44.900;-0.764;2023-06-04T08:35:46;13.38;;;5.32;;
80199;SDS011;69520;44.900;-0.764;2023-06-04T08:38:12;9.53;;;5.63;;
80199;SDS011;69520;44.900;-0.764;2023-06-04T08:40:38;8.13;;;5.20;;
80199;SDS011;69520;44.900;-0.764;2023-06-04T08:43:04;8.60;;;5.40;;
80199;SDS011;69520;44.900;-0.764;2023-06-04T08:45:31;9.15;;;5.55;;
80199;SDS011;69520;44.900;-0.764;2023-06-04T08:47:58;10.23;;;5.72;;
80199;SDS011;69520;44.900;-0.764;2023-06-04T08:50:24;8.50;;;5.10;;
80199;SDS011;69520;44.900;-0.764;2023-06-04T08:52:53;9.32;;;5.40;;
80199;SDS011;69520;44.900;-0.764;2023-06-04T08:55:20;9.45;;;5.07;;
80199;SDS011;69520;44.900;-0.764;2023-06-04T08:57:47;8.95;;;5.03;;
80199;SDS011;69520;44.900;-0.764;2023-06-04T09:00:15;8.25;;;5.07;;
80199;SDS011;69520;44.900;-0.764;2023-06-04T09:02:41;10.17;;;5.50;;
80199;SDS011;69520;44.900;-0.764;2023-06-04T09:05:07;9.27;;;5.00;;
80199;SDS011;69520;44.900;-0.764;2023-06-04T09:07:37;9.45;;;4.93;;
80199;SDS011;69520;44.900;-0.764;2023-06-04T09:10:04;9.93;;;5.28;;
80199;SDS011;69520;44.900;-0.764;2023-06-04T09:12:33;8.52;;;5.45;;
80199;SDS011;69520;44.900;-0.764;2023-06-04T09:15:01;9.17;;;5.00;;
80199;SDS011;69520;44.900;-0.764;2023-06-04T09:17:27;7.43;;;4.65;;
80199;SDS011;69520;44.900;-0.764;2023-06-04T09:19:54;7.80;;;4.50;;
80199;SDS011;69520;44.900;-0.764;2023-06-04T09:22:30;9.05;;;4.75;;
80199;SDS011;69520;44.900;-0.764;2023-06-04T09:24:57;7.35;;;4.63;;
80199;SDS011;69520;44.900;-0.764;2023-06-04T09:27:23;8.83;;;4.90;;
80199;SDS011;69520;44.900;-0.764;2023-06-04T09:29:51;8.60;;;4.97;;
80199;SDS011;69520;44.900;-0.764;2023-06-04T09:32:24;8.68;;;4.80;;
80199;SDS011;69520;44.900;-0.764;2023-06-04T09:34:55;8.23;;;4.88;;
80199;SDS011;69520;44.900;-0.764;2023-06-04T09:37:22;9.20;;;4.63;;
80199;SDS011;69520;44.900;-0.764;2023-06-04T09:39:53;7.90;;;5.20;;
80199;SDS011;69520;44.900;-0.764;2023-06-04T09:42:19;8.52;;;4.90;;
80199;SDS011;69520;44.900;-0.764;2023-06-04T09:44:45;8.43;;;4.50;;
80199;SDS011;69520;44.900;-0.764;2023-06-04T09:47:11;8.93;;;5.10;;
80199;SDS011;69520;44.900;-0.764;2023-06-04T09:49:41;8.25;;;5.18;;
80199;SDS011;69520;44.900;-0.764;2023-06-04T09:52:07;8.43;;;4.93;;
80199;SDS011;69520;44.900;-0.764;2023-06-04T09:54:34;7.97;;;4.60;;
80199;SDS011;69520;44.900;-0.764;2023-06-04T09:57:01;9.00;;;5.10;;
80199;SDS011;69520;44.900;-0.764;2023-06-04T09:59:29;7.82;;;4.50;;
80199;SDS011;69520;44.900;-0.764;2023-06-04T10:01:56;8.93;;;5.50;;
80199;SDS011;69520;44.900;-0.764;2023-06-04T10:04:22;9.13;;;5.70;;
80199;SDS011;69520;44.900;-0.764;2023-06-04T10:06:48;8.93;;;5.47;;
80199;SDS011;69520;44.900;-0.764;2023-06-04T10:09:14;8.70;;;5.45;;
80199;SDS011;69520;44.900;-0.764;2023-06-04T10:11:42;9.95;;;5.25;;
80199;SDS011;69520;44.900;-0.764;2023-06-04T10:14:14;7.88;;;5.30;;
80199;SDS011;69520;44.900;-0.764;2023-06-04T10:16:43;8.50;;;5.30;;
80199;SDS011;69520;44.900;-0.764;2023-06-04T10:19:09;9.30;;;5.13;;
80199;SDS011;69520;44.900;-0.764;2023-06-04T10:21:36;9.10;;;5.10;;
80199;SDS011;69520;44.900;-0.764;2023-06-04T10:24:02;8.38;;;5.55;;
80199;SDS011;69520;44.900;-0.764;2023-06-04T10:26:28;9.60;;;5.50;;
80199;SDS011;69520;44.900;-0.764;2023-06-04T10:28:56;9.27;;;5.97;;
80199;SDS011;69520;44.900;-0.764;2023-06-04T10:31:23;8.68;;;5.22;;
80199;SDS011;69520;44.900;-0.764;2023-06-04T10:33:53;8.45;;;5.50;;
80199;SDS011;69520;44.900;-0.764;2023-06-04T10:36:20;9.50;;;5.55;;
80199;SDS011;69520;44.900;-0.764;2023-06-04T10:38:54;8.38;;;5.45;;
80199;SDS011;69520;44.900;-0.764;2023-06-04T10:41:20;9.27;;;5.50;;
80199;SDS011;69520;44.900;-0.764;2023-06-04T10:43:48;9.02;;;5.63;;
80199;SDS011;69520;44.900;-0.764;2023-06-04T10:46:15;9.20;;;5.40;;
80199;SDS011;69520;44.900;-0.764;2023-06-04T10:48:53;8.85;;;5.00;;
80199;SDS011;69520;44.900;-0.764;2023-06-04T10:51:32;9.23;;;5.50;;
80199;SDS011;69520;44.900;-0.764;2023-06-04T10:53:59;9.03;;;5.63;;
80199;SDS011;69520;44.900;-0.764;2023-06-04T10:56:29;8.02;;;4.93;;
80199;SDS011;69520;44.900;-0.764;2023-06-04T10:58:57;8.77;;;5.05;;
80199;SDS011;69520;44.900;-0.764;2023-06-04T11:01:26;9.05;;;5.40;;
80199;SDS011;69520;44.900;-0.764;2023-06-04T11:03:57;8.85;;;5.45;;
80199;SDS011;69520;44.900;-0.764;2023-06-04T11:06:23;10.07;;;5.93;;
80199;SDS011;69520;44.900;-0.764;2023-06-04T11:09:05;8.65;;;5.63;;
80199;SDS011;69520;44.900;-0.764;2023-06-04T11:11:31;8.50;;;5.32;;
80199;SDS011;69520;44.900;-0.764;2023-06-04T11:14:07;9.00;;;5.80;;
80199;SDS011;69520;44.900;-0.764;2023-06-04T11:16:33;8.23;;;5.30;;
80199;SDS011;69520;44.900;-0.764;2023-06-04T11:18:59;9.47;;;5.30;;
80199;SDS011;69520;44.900;-0.764;2023-06-04T11:21:27;9.93;;;6.35;;
80199;SDS011;69520;44.900;-0.764;2023-06-04T11:23:58;8.05;;;5.40;;
80199;SDS011;69520;44.900;-0.764;2023-06-04T11:26:31;8.52;;;5.53;;
80199;SDS011;69520;44.900;-0.764;2023-06-04T11:28:57;8.48;;;5.70;;
80199;SDS011;69520;44.900;-0.764;2023-06-04T11:31:23;8.20;;;5.43;;
80199;SDS011;69520;44.900;-0.764;2023-06-04T11:33:50;8.98;;;5.38;;
80199;SDS011;69520;44.900;-0.764;2023-06-04T11:36:27;8.73;;;5.47;;
80199;SDS011;69520;44.900;-0.764;2023-06-04T11:38:54;9.57;;;5.35;;
80199;SDS011;69520;44.900;-0.764;2023-06-04T11:41:21;7.65;;;5.32;;
80199;SDS011;69520;44.900;-0.764;2023-06-04T11:43:47;9.33;;;6.03;;
80199;SDS011;69520;44.900;-0.764;2023-06-04T11:46:13;8.20;;;5.65;;
80199;SDS011;69520;44.900;-0.764;2023-06-04T11:48:40;8.48;;;5.57;;
80199;SDS011;69520;44.900;-0.764;2023-06-04T11:51:07;8.48;;;5.72;;
80199;SDS011;69520;44.900;-0.764;2023-06-04T11:53:34;8.88;;;5.72;;
80199;SDS011;69520;44.900;-0.764;2023-06-04T11:56:00;7.90;;;5.40;;
80199;SDS011;69520;44.900;-0.764;2023-06-04T11:58:26;8.70;;;6.05;;
80199;SDS011;69520;44.900;-0.764;2023-06-04T12:00:52;9.63;;;6.28;;
80199;SDS011;69520;44.900;-0.764;2023-06-04T12:03:18;9.20;;;6.15;;
80199;SDS011;69520;44.900;-0.764;2023-06-04T12:05:44;10.10;;;6.63;;
80199;SDS011;69520;44.900;-0.764;2023-06-04T12:08:10;10.40;;;6.67;;
80199;SDS011;69520;44.900;-0.764;2023-06-04T12:10:40;8.63;;;6.20;;
80199;SDS011;69520;44.900;-0.764;2023-06-04T12:13:07;9.73;;;6.43;;
80199;SDS011;69520;44.900;-0.764;2023-06-04T12:15:33;9.43;;;6.70;;
80199;SDS011;69520;44.900;-0.764;2023-06-04T12:17:59;9.60;;;6.53;;
80199;SDS011;69520;44.900;-0.764;2023-06-04T12:20:35;9.40;;;6.50;;
80199;SDS011;69520;44.900;-0.764;2023-06-04T12:23:01;8.55;;;6.00;;
80199;SDS011;69520;44.900;-0.764;2023-06-04T12:25:28;8.45;;;5.35;;
80199;SDS011;69520;44.900;-0.764;2023-06-04T12:27:55;9.23;;;5.47;;
80199;SDS011;69520;44.900;-0.764;2023-06-04T12:30:21;8.82;;;5.20;;
80199;SDS011;69520;44.900;-0.764;2023-06-04T12:32:47;8.20;;;5.13;;
80199;SDS011;69520;44.900;-0.764;2023-06-04T12:35:14;10.05;;;6.03;;
80199;SDS011;69520;44.900;-0.764;2023-06-04T12:37:41;8.75;;;5.18;;
80199;SDS011;69520;44.900;-0.764;2023-06-04T12:40:07;8.52;;;5.05;;
80199;SDS011;69520;44.900;-0.764;2023-06-04T12:42:34;8.07;;;5.10;;
80199;SDS011;69520;44.900;-0.764;2023-06-04T12:45:00;10.93;;;5.67;;
80199;SDS011;69520;44.900;-0.764;2023-06-04T12:47:26;12.57;;;6.22;;
80199;SDS011;69520;44.900;-0.764;2023-06-04T12:49:52;9.00;;;5.22;;
80199;SDS011;69520;44.900;-0.764;2023-06-04T12:52:18;9.57;;;5.50;;
80199;SDS011;69520;44.900;-0.764;2023-06-04T12:54:44;9.50;;;5.18;;
80199;SDS011;69520;44.900;-0.764;2023-06-04T12:57:10;10.77;;;5.40;;
80199;SDS011;69520;44.900;-0.764;2023-06-04T12:59:36;9.52;;;5.47;;
80199;SDS011;69520;44.900;-0.764;2023-06-04T13:02:02;9.32;;;5.13;;
80199;SDS011;69520;44.900;-0.764;2023-06-04T13:04:28;9.00;;;5.40;;
80199;SDS011;69520;44.900;-0.764;2023-06-04T13:06:55;10.27;;;4.78;;
80199;SDS011;69520;44.900;-0.764;2023-06-04T13:09:24;11.87;;;5.37;;
80199;SDS011;69520;44.900;-0.764;2023-06-04T13:11:50;8.60;;;5.10;;
80199;SDS011;69520;44.900;-0.764;2023-06-04T13:14:16;10.32;;;4.78;;
80199;SDS011;69520;44.900;-0.764;2023-06-04T13:16:42;11.85;;;5.13;;
80199;SDS011;69520;44.900;-0.764;2023-06-04T13:19:13;9.13;;;5.22;;
80199;SDS011;69520;44.900;-0.764;2023-06-04T13:21:39;9.73;;;5.70;;
80199;SDS011;69520;44.900;-0.764;2023-06-04T13:24:05;11.45;;;5.68;;
80199;SDS011;69520;44.900;-0.764;2023-06-04T13:26:32;10.02;;;5.38;;
80199;SDS011;69520;44.900;-0.764;2023-06-04T13:28:58;10.68;;;5.85;;
80199;SDS011;69520;44.900;-0.764;2023-06-04T13:31:24;9.85;;;5.57;;
80199;SDS011;69520;44.900;-0.764;2023-06-04T13:33:50;9.53;;;4.97;;
80199;SDS011;69520;44.900;-0.764;2023-06-04T13:36:16;9.57;;;5.10;;
80199;SDS011;69520;44.900;-0.764;2023-06-04T13:38:42;10.00;;;5.28;;
80199;SDS011;69520;44.900;-0.764;2023-06-04T13:41:08;10.18;;;5.07;;
80199;SDS011;69520;44.900;-0.764;2023-06-04T13:43:35;10.48;;;5.45;;
80199;SDS011;69520;44.900;-0.764;2023-06-04T13:46:01;10.80;;;5.73;;
80199;SDS011;69520;44.900;-0.764;2023-06-04T13:48:27;11.15;;;5.43;;
80199;SDS011;69520;44.900;-0.764;2023-06-04T13:50:53;11.32;;;5.57;;
80199;SDS011;69520;44.900;-0.764;2023-06-04T13:53:19;11.63;;;6.60;;
80199;SDS011;69520;44.900;-0.764;2023-06-04T13:55:45;10.65;;;5.60;;
80199;SDS011;69520;44.900;-0.764;2023-06-04T13:58:11;10.03;;;5.50;;
80199;SDS011;69520;44.900;-0.764;2023-06-04T14:00:39;10.98;;;5.55;;
80199;SDS011;69520;44.900;-0.764;2023-06-04T14:03:05;10.15;;;5.60;;
80199;SDS011;69520;44.900;-0.764;2023-06-04T14:05:31;11.40;;;6.38;;
80199;SDS011;69520;44.900;-0.764;2023-06-04T14:07:57;10.52;;;5.82;;
80199;SDS011;69520;44.900;-0.764;2023-06-04T14:10:23;11.10;;;6.40;;
80199;SDS011;69520;44.900;-0.764;2023-06-04T14:12:49;11.25;;;6.30;;
80199;SDS011;69520;44.900;-0.764;2023-06-04T14:15:15;10.23;;;6.05;;
80199;SDS011;69520;44.900;-0.764;2023-06-04T14:17:42;10.23;;;5.97;;
80199;SDS011;69520;44.900;-0.764;2023-06-04T14:20:08;10.73;;;6.20;;
80199;SDS011;69520;44.900;-0.764;2023-06-04T14:22:34;10.93;;;6.47;;
80199;SDS011;69520;44.900;-0.764;2023-06-04T14:25:01;12.30;;;6.82;;
80199;SDS011;69520;44.900;-0.764;2023-06-04T14:27:27;10.45;;;6.15;;
80199;SDS011;69520;44.900;-0.764;2023-06-04T14:29:54;11.15;;;6.40;;